sensor_id;sensor_type;location;lat;lon;timestamp;pressure;altitude;pressure_sealevel;temperature;humidity
45071;BME280;30836;48.906;9.140;2022-09-24T00:00:04;983.61;;;21.32;43.52
45071;BME280;30836;48.906;9.140;2022-09-24T00:01:12;983.61;;;21.29;43.59
45071;BME280;30836;48.906;9.140;2022-09-24T00:02:15;983.59;;;21.28;43.52
45071;BME280;30836;48.906;9.140;2022-09-24T00:03:19;983.59;;;21.30;43.51
45071;BME280;30836;48.906;9.140;2022-09-24T00:04:23;983.59;;;21.32;43.51
45071;BME280;30836;48.906;9.140;2022-09-24T00:05:25;983.59;;;21.34;43.49
45071;BME280;30836;48.906;9.140;2022-09-24T00:05:38;983.56;;;21.34;43.48
45071;BME280;30836;48.906;9.140;2022-09-24T00:06:41;983.56;;;21.36;43.47
45071;BME280;30836;48.906;9.140;2022-09-24T00:07:43;983.54;;;21.37;43.43
45071;BME280;30836;48.906;9.140;2022-09-24T00:08:45;983.52;;;21.39;43.45
45071;BME280;30836;48.906;9.140;2022-09-24T00:09:47;983.52;;;21.41;43.41
45071;BME280;30836;48.906;9.140;2022-09-24T00:10:48;983.52;;;21.42;43.51
45071;BME280;30836;48.906;9.140;2022-09-24T00:11:49;983.46;;;21.40;43.71
45071;BME280;30836;48.906;9.140;2022-09-24T00:12:50;983.48;;;21.37;43.96
45071;BME280;30836;48.906;9.140;2022-09-24T00:13:51;983.46;;;21.32;44.08
45071;BME280;30836;48.906;9.140;2022-09-24T00:14:52;983.42;;;21.28;44.15
45071;BME280;30836;48.906;9.140;2022-09-24T00:15:53;983.42;;;21.25;44.24
45071;BME280;30836;48.906;9.140;2022-09-24T00:16:53;983.40;;;21.21;44.28
45071;BME280;30836;48.906;9.140;2022-09-24T00:17:54;983.42;;;21.18;44.30
45071;BME280;30836;48.906;9.140;2022-09-24T00:18:54;983.38;;;21.15;44.43
45071;BME280;30836;48.906;9.140;2022-09-24T00:19:55;983.36;;;21.12;44.53
45071;BME280;30836;48.906;9.140;2022-09-24T00:20:55;983.36;;;21.10;44.70
45071;BME280;30836;48.906;9.140;2022-09-24T00:21:55;983.36;;;21.08;44.71
45071;BME280;30836;48.906;9.140;2022-09-24T00:22:56;983.36;;;21.05;44.76
45071;BME280;30836;48.906;9.140;2022-09-24T00:23:58;983.32;;;21.01;44.94
45071;BME280;30836;48.906;9.140;2022-09-24T00:25:00;983.38;;;21.00;44.82
45071;BME280;30836;48.906;9.140;2022-09-24T00:26:00;983.36;;;21.06;44.47
45071;BME280;30836;48.906;9.140;2022-09-24T00:27:01;983.38;;;21.17;44.22
45071;BME280;30836;48.906;9.140;2022-09-24T00:28:03;983.38;;;21.28;43.99
45071;BME280;30836;48.906;9.140;2022-09-24T00:29:03;983.40;;;21.38;43.80
45071;BME280;30836;48.906;9.140;2022-09-24T00:30:04;983.38;;;21.47;43.57
45071;BME280;30836;48.906;9.140;2022-09-24T00:31:06;983.36;;;21.54;43.44
45071;BME280;30836;48.906;9.140;2022-09-24T00:32:07;983.34;;;21.61;43.34
45071;BME280;30836;48.906;9.140;2022-09-24T00:33:07;983.36;;;21.67;43.24
45071;BME280;30836;48.906;9.140;2022-09-24T00:34:08;983.32;;;21.71;43.19
45071;BME280;30836;48.906;9.140;2022-09-24T00:35:09;983.30;;;21.75;43.16
45071;BME280;30836;48.906;9.140;2022-09-24T00:36:09;983.28;;;21.78;43.13
45071;BME280;30836;48.906;9.140;2022-09-24T00:37:10;983.26;;;21.81;43.11
45071;BME280;30836;48.906;9.140;2022-09-24T00:38:10;983.28;;;21.83;43.09
45071;BME280;30836;48.906;9.140;2022-09-24T00:39:11;983.28;;;21.84;43.09
45071;BME280;30836;48.906;9.140;2022-09-24T00:40:12;983.30;;;21.85;43.04
45071;BME280;30836;48.906;9.140;2022-09-24T00:41:12;983.28;;;21.87;42.98
45071;BME280;30836;48.906;9.140;2022-09-24T00:42:13;983.28;;;21.89;42.93
45071;BME280;30836;48.906;9.140;2022-09-24T00:45:32;983.32;;;21.86;43.19
45071;BME280;30836;48.906;9.140;2022-09-24T00:47:40;983.30;;;21.63;43.68
45071;BME280;30836;48.906;9.140;2022-09-24T00:47:51;983.32;;;21.47;43.67
45071;BME280;30836;48.906;9.140;2022-09-24T00:48:53;983.30;;;21.46;43.80
45071;BME280;30836;48.906;9.140;2022-09-24T00:51:12;983.30;;;21.38;44.08
45071;BME280;30836;48.906;9.140;2022-09-24T00:52:17;983.28;;;21.34;44.16
45071;BME280;30836;48.906;9.140;2022-09-24T00:53:19;983.28;;;21.30;44.26
45071;BME280;30836;48.906;9.140;2022-09-24T00:54:23;983.26;;;21.26;44.32
45071;BME280;30836;48.906;9.140;2022-09-24T00:55:26;983.24;;;21.25;44.34
45071;BME280;30836;48.906;9.140;2022-09-24T00:56:27;983.22;;;21.30;44.09
45071;BME280;30836;48.906;9.140;2022-09-24T00:57:31;983.22;;;21.39;43.78
45071;BME280;30836;48.906;9.140;2022-09-24T00:58:32;983.16;;;21.49;43.65
45071;BME280;30836;48.906;9.140;2022-09-24T00:59:32;983.12;;;21.54;43.75
45071;BME280;30836;48.906;9.140;2022-09-24T01:00:36;983.10;;;21.51;43.97
45071;BME280;30836;48.906;9.140;2022-09-24T01:01:38;983.08;;;21.45;44.09
45071;BME280;30836;48.906;9.140;2022-09-24T01:02:38;983.05;;;21.46;43.89
45071;BME280;30836;48.906;9.140;2022-09-24T01:03:43;983.05;;;21.49;43.80
45071;BME280;30836;48.906;9.140;2022-09-24T01:04:43;983.03;;;21.47;44.02
45071;BME280;30836;48.906;9.140;2022-09-24T01:05:44;983.01;;;21.38;44.21
45071;BME280;30836;48.906;9.140;2022-09-24T01:06:44;983.01;;;21.27;44.51
45071;BME280;30836;48.906;9.140;2022-09-24T01:07:45;982.99;;;21.14;44.88
45071;BME280;30836;48.906;9.140;2022-09-24T01:08:45;982.97;;;21.03;45.01
45071;BME280;30836;48.906;9.140;2022-09-24T01:09:46;982.99;;;20.94;45.19
45071;BME280;30836;48.906;9.140;2022-09-24T01:13:16;982.97;;;20.77;45.61
45071;BME280;30836;48.906;9.140;2022-09-24T01:14:23;982.95;;;20.75;45.67
45071;BME280;30836;48.906;9.140;2022-09-24T01:15:34;982.93;;;20.74;45.73
45071;BME280;30836;48.906;9.140;2022-09-24T01:16:44;982.93;;;20.74;45.66
45071;BME280;30836;48.906;9.140;2022-09-24T01:27:15;982.83;;;20.81;45.65
45071;BME280;30836;48.906;9.140;2022-09-24T01:30:37;982.81;;;21.05;44.83
45071;BME280;30836;48.906;9.140;2022-09-24T01:31:41;982.81;;;21.17;44.65
45071;BME280;30836;48.906;9.140;2022-09-24T01:33:55;982.77;;;21.36;44.32
45071;BME280;30836;48.906;9.140;2022-09-24T01:34:59;982.79;;;21.44;44.16
45071;BME280;30836;48.906;9.140;2022-09-24T01:36:03;982.75;;;21.51;43.98
45071;BME280;30836;48.906;9.140;2022-09-24T01:37:06;982.77;;;21.56;43.94
45071;BME280;30836;48.906;9.140;2022-09-24T01:39:15;982.75;;;21.65;43.69
45071;BME280;30836;48.906;9.140;2022-09-24T01:40:18;982.77;;;21.69;43.66
45071;BME280;30836;48.906;9.140;2022-09-24T01:41:21;982.75;;;21.72;43.66
45071;BME280;30836;48.906;9.140;2022-09-24T01:42:22;982.77;;;21.74;43.64
45071;BME280;30836;48.906;9.140;2022-09-24T01:43:25;982.73;;;21.75;43.62
45071;BME280;30836;48.906;9.140;2022-09-24T01:44:27;982.75;;;21.76;43.56
45071;BME280;30836;48.906;9.140;2022-09-24T01:45:27;982.71;;;21.77;43.59
45071;BME280;30836;48.906;9.140;2022-09-24T01:46:28;982.69;;;21.78;43.55
45071;BME280;30836;48.906;9.140;2022-09-24T01:47:30;982.67;;;21.80;43.43
45071;BME280;30836;48.906;9.140;2022-09-24T01:48:37;982.63;;;21.81;43.37
45071;BME280;30836;48.906;9.140;2022-09-24T01:49:38;982.63;;;21.81;43.44
45071;BME280;30836;48.906;9.140;2022-09-24T01:51:25;982.63;;;21.79;43.50
45071;BME280;30836;48.906;9.140;2022-09-24T01:51:50;982.61;;;21.72;43.81
45071;BME280;30836;48.906;9.140;2022-09-24T01:54:08;982.65;;;21.43;44.58
45071;BME280;30836;48.906;9.140;2022-09-24T01:55:16;982.63;;;21.29;44.76
45071;BME280;30836;48.906;9.140;2022-09-24T01:56:23;982.65;;;21.20;44.85
45071;BME280;30836;48.906;9.140;2022-09-24T01:57:33;982.65;;;21.11;45.11
45071;BME280;30836;48.906;9.140;2022-09-24T01:58:39;982.63;;;21.02;45.38
45071;BME280;30836;48.906;9.140;2022-09-24T02:00:57;982.61;;;20.85;45.56
45071;BME280;30836;48.906;9.140;2022-09-24T02:02:06;982.59;;;20.79;45.56
45071;BME280;30836;48.906;9.140;2022-09-24T02:03:15;982.59;;;20.75;45.68
45071;BME280;30836;48.906;9.140;2022-09-24T02:04:20;982.53;;;20.72;45.81
45071;BME280;30836;48.906;9.140;2022-09-24T02:06:36;982.53;;;20.63;46.15
45071;BME280;30836;48.906;9.140;2022-09-24T02:07:43;982.53;;;20.58;46.20
45071;BME280;30836;48.906;9.140;2022-09-24T02:08:49;982.51;;;20.57;46.19
45071;BME280;30836;48.906;9.140;2022-09-24T02:09:50;982.53;;;20.55;46.30
45071;BME280;30836;48.906;9.140;2022-09-24T02:10:52;982.51;;;20.52;46.35
45071;BME280;30836;48.906;9.140;2022-09-24T02:12:01;982.48;;;20.49;46.44
45071;BME280;30836;48.906;9.140;2022-09-24T02:13:06;982.42;;;20.46;46.48
45071;BME280;30836;48.906;9.140;2022-09-24T02:14:11;982.42;;;20.43;46.51
45071;BME280;30836;48.906;9.140;2022-09-24T02:15:14;982.42;;;20.42;46.59
45071;BME280;30836;48.906;9.140;2022-09-24T02:17:30;982.46;;;20.37;46.77
45071;BME280;30836;48.906;9.140;2022-09-24T02:18:35;982.48;;;20.35;46.72
45071;BME280;30836;48.906;9.140;2022-09-24T02:18:50;982.50;;;20.31;46.71
45071;BME280;30836;48.906;9.140;2022-09-24T02:19:53;982.48;;;20.34;46.52
45071;BME280;30836;48.906;9.140;2022-09-24T02:20:58;982.46;;;20.37;46.53
45071;BME280;30836;48.906;9.140;2022-09-24T02:22:01;982.44;;;20.39;46.58
45071;BME280;30836;48.906;9.140;2022-09-24T02:23:04;982.44;;;20.39;46.54
45071;BME280;30836;48.906;9.140;2022-09-24T02:24:07;982.44;;;20.39;46.48
45071;BME280;30836;48.906;9.140;2022-09-24T02:25:13;982.46;;;20.39;46.49
45071;BME280;30836;48.906;9.140;2022-09-24T02:26:19;982.46;;;20.39;46.53
45071;BME280;30836;48.906;9.140;2022-09-24T02:27:20;982.46;;;20.38;46.55
45071;BME280;30836;48.906;9.140;2022-09-24T02:28:21;982.48;;;20.38;46.55
45071;BME280;30836;48.906;9.140;2022-09-24T02:29:22;982.46;;;20.37;46.55
45071;BME280;30836;48.906;9.140;2022-09-24T02:30:22;982.46;;;20.37;46.54
45071;BME280;30836;48.906;9.140;2022-09-24T02:31:23;982.46;;;20.36;46.59
45071;BME280;30836;48.906;9.140;2022-09-24T02:32:28;982.44;;;20.36;46.55
45071;BME280;30836;48.906;9.140;2022-09-24T02:33:31;982.42;;;20.38;46.42
45071;BME280;30836;48.906;9.140;2022-09-24T02:34:35;982.42;;;20.47;46.05
45071;BME280;30836;48.906;9.140;2022-09-24T02:35:40;982.40;;;20.61;45.70
45071;BME280;30836;48.906;9.140;2022-09-24T02:36:41;982.42;;;20.74;45.56
45071;BME280;30836;48.906;9.140;2022-09-24T02:37:42;982.44;;;20.85;45.39
45071;BME280;30836;48.906;9.140;2022-09-24T02:38:43;982.48;;;20.95;45.22
45071;BME280;30836;48.906;9.140;2022-09-24T02:39:43;982.50;;;21.04;45.07
45071;BME280;30836;48.906;9.140;2022-09-24T02:40:44;982.48;;;21.11;44.91
45071;BME280;30836;48.906;9.140;2022-09-24T02:41:45;982.44;;;21.17;44.75
45071;BME280;30836;48.906;9.140;2022-09-24T02:42:47;982.40;;;21.23;44.65
45071;BME280;30836;48.906;9.140;2022-09-24T02:43:47;982.38;;;21.25;44.65
45071;BME280;30836;48.906;9.140;2022-09-24T02:44:48;982.34;;;21.26;44.65
45071;BME280;30836;48.906;9.140;2022-09-24T02:45:48;982.36;;;21.26;44.63
45071;BME280;30836;48.906;9.140;2022-09-24T02:46:49;982.34;;;21.28;44.68
45071;BME280;30836;48.906;9.140;2022-09-24T02:47:49;982.34;;;21.29;44.62
45071;BME280;30836;48.906;9.140;2022-09-24T02:48:50;982.32;;;21.30;44.58
45071;BME280;30836;48.906;9.140;2022-09-24T02:49:50;982.28;;;21.32;44.39
45071;BME280;30836;48.906;9.140;2022-09-24T02:50:50;982.26;;;21.34;44.42
45071;BME280;30836;48.906;9.140;2022-09-24T02:51:51;982.26;;;21.35;44.37
45071;BME280;30836;48.906;9.140;2022-09-24T02:52:51;982.28;;;21.37;44.37
45071;BME280;30836;48.906;9.140;2022-09-24T02:53:52;982.30;;;21.39;44.31
45071;BME280;30836;48.906;9.140;2022-09-24T02:54:52;982.34;;;21.40;44.34
45071;BME280;30836;48.906;9.140;2022-09-24T02:55:53;982.42;;;21.41;44.33
45071;BME280;30836;48.906;9.140;2022-09-24T02:56:53;982.46;;;21.42;44.32
45071;BME280;30836;48.906;9.140;2022-09-24T02:57:53;982.50;;;21.42;44.24
45071;BME280;30836;48.906;9.140;2022-09-24T02:58:54;982.50;;;21.41;44.29
45071;BME280;30836;48.906;9.140;2022-09-24T02:59:55;982.50;;;21.39;44.40
45071;BME280;30836;48.906;9.140;2022-09-24T03:00:55;982.53;;;21.38;44.32
45071;BME280;30836;48.906;9.140;2022-09-24T03:01:56;982.53;;;21.37;44.37
45071;BME280;30836;48.906;9.140;2022-09-24T03:02:57;982.55;;;21.35;44.44
45071;BME280;30836;48.906;9.140;2022-09-24T03:03:57;982.51;;;21.34;44.46
45071;BME280;30836;48.906;9.140;2022-09-24T03:04:58;982.51;;;21.31;44.50
45071;BME280;30836;48.906;9.140;2022-09-24T03:05:58;982.50;;;21.27;44.77
45071;BME280;30836;48.906;9.140;2022-09-24T03:06:59;982.51;;;21.21;45.04
45071;BME280;30836;48.906;9.140;2022-09-24T03:07:59;982.46;;;21.14;45.10
45071;BME280;30836;48.906;9.140;2022-09-24T03:09:00;982.44;;;21.12;45.00
45071;BME280;30836;48.906;9.140;2022-09-24T03:10:00;982.46;;;21.13;44.95
45071;BME280;30836;48.906;9.140;2022-09-24T03:11:01;982.42;;;21.15;44.92
45071;BME280;30836;48.906;9.140;2022-09-24T03:12:01;982.40;;;21.16;44.91
45071;BME280;30836;48.906;9.140;2022-09-24T03:13:02;982.36;;;21.19;44.82
45071;BME280;30836;48.906;9.140;2022-09-24T03:14:03;982.36;;;21.22;44.73
45071;BME280;30836;48.906;9.140;2022-09-24T03:15:03;982.32;;;21.25;44.68
45071;BME280;30836;48.906;9.140;2022-09-24T03:16:05;982.32;;;21.28;44.62
45071;BME280;30836;48.906;9.140;2022-09-24T03:17:06;982.30;;;21.30;44.60
45071;BME280;30836;48.906;9.140;2022-09-24T03:18:06;982.28;;;21.31;44.58
45071;BME280;30836;48.906;9.140;2022-09-24T03:19:07;982.26;;;21.31;44.55
45071;BME280;30836;48.906;9.140;2022-09-24T03:20:08;982.28;;;21.31;44.54
45071;BME280;30836;48.906;9.140;2022-09-24T03:21:09;982.30;;;21.30;44.62
45071;BME280;30836;48.906;9.140;2022-09-24T03:22:11;982.28;;;21.30;44.67
45071;BME280;30836;48.906;9.140;2022-09-24T03:23:11;982.28;;;21.31;44.59
45071;BME280;30836;48.906;9.140;2022-09-24T03:24:12;982.28;;;21.33;44.57
45071;BME280;30836;48.906;9.140;2022-09-24T03:25:12;982.26;;;21.33;44.61
45071;BME280;30836;48.906;9.140;2022-09-24T03:26:13;982.26;;;21.32;44.64
45071;BME280;30836;48.906;9.140;2022-09-24T03:27:13;982.26;;;21.32;44.60
45071;BME280;30836;48.906;9.140;2022-09-24T03:28:14;982.24;;;21.32;44.67
45071;BME280;30836;48.906;9.140;2022-09-24T03:29:16;982.24;;;21.33;44.56
45071;BME280;30836;48.906;9.140;2022-09-24T03:30:16;982.24;;;21.35;44.53
45071;BME280;30836;48.906;9.140;2022-09-24T03:31:17;982.22;;;21.36;44.42
45071;BME280;30836;48.906;9.140;2022-09-24T03:32:17;982.18;;;21.38;44.39
45071;BME280;30836;48.906;9.140;2022-09-24T03:33:18;982.16;;;21.38;44.44
45071;BME280;30836;48.906;9.140;2022-09-24T03:34:18;982.14;;;21.37;44.49
45071;BME280;30836;48.906;9.140;2022-09-24T03:35:18;982.04;;;21.37;44.47
45071;BME280;30836;48.906;9.140;2022-09-24T03:36:23;982.02;;;21.37;44.48
45071;BME280;30836;48.906;9.140;2022-09-24T03:37:24;982.00;;;21.38;44.47
45071;BME280;30836;48.906;9.140;2022-09-24T03:38:24;982.02;;;21.39;44.44
45071;BME280;30836;48.906;9.140;2022-09-24T03:39:25;982.02;;;21.40;44.38
45071;BME280;30836;48.906;9.140;2022-09-24T03:40:25;982.12;;;21.41;44.33
45071;BME280;30836;48.906;9.140;2022-09-24T03:41:26;982.12;;;21.41;44.37
45071;BME280;30836;48.906;9.140;2022-09-24T03:42:27;982.16;;;21.42;44.37
45071;BME280;30836;48.906;9.140;2022-09-24T03:43:27;982.14;;;21.43;44.33
45071;BME280;30836;48.906;9.140;2022-09-24T03:44:28;982.14;;;21.45;44.26
45071;BME280;30836;48.906;9.140;2022-09-24T03:45:28;982.12;;;21.45;44.23
45071;BME280;30836;48.906;9.140;2022-09-24T03:46:29;982.12;;;21.46;44.22
45071;BME280;30836;48.906;9.140;2022-09-24T03:47:29;982.14;;;21.47;44.26
45071;BME280;30836;48.906;9.140;2022-09-24T03:48:30;982.12;;;21.48;44.23
45071;BME280;30836;48.906;9.140;2022-09-24T03:49:30;982.14;;;21.49;44.24
45071;BME280;30836;48.906;9.140;2022-09-24T03:50:31;982.14;;;21.49;44.17
45071;BME280;30836;48.906;9.140;2022-09-24T03:51:34;982.14;;;21.49;44.24
45071;BME280;30836;48.906;9.140;2022-09-24T03:52:35;982.14;;;21.49;44.21
45071;BME280;30836;48.906;9.140;2022-09-24T03:53:35;982.14;;;21.47;44.24
45071;BME280;30836;48.906;9.140;2022-09-24T03:54:36;982.12;;;21.40;44.64
45071;BME280;30836;48.906;9.140;2022-09-24T03:56:46;982.04;;;21.11;45.36
45071;BME280;30836;48.906;9.140;2022-09-24T03:57:47;982.02;;;20.98;45.55
45071;BME280;30836;48.906;9.140;2022-09-24T03:58:47;982.00;;;20.87;45.77
45071;BME280;30836;48.906;9.140;2022-09-24T03:59:48;982.02;;;20.78;45.94
45071;BME280;30836;48.906;9.140;2022-09-24T04:00:52;981.98;;;20.71;46.13
45071;BME280;30836;48.906;9.140;2022-09-24T04:01:52;981.98;;;20.66;46.23
45071;BME280;30836;48.906;9.140;2022-09-24T04:02:53;981.98;;;20.62;46.28
45071;BME280;30836;48.906;9.140;2022-09-24T04:03:53;981.96;;;20.58;46.39
45071;BME280;30836;48.906;9.140;2022-09-24T04:04:54;981.98;;;20.55;46.52
45071;BME280;30836;48.906;9.140;2022-09-24T04:05:54;982.00;;;20.51;46.58
45071;BME280;30836;48.906;9.140;2022-09-24T04:06:55;982.04;;;20.47;46.63
45071;BME280;30836;48.906;9.140;2022-09-24T04:07:57;982.02;;;20.45;46.66
45071;BME280;30836;48.906;9.140;2022-09-24T04:08:58;982.02;;;20.43;46.65
45071;BME280;30836;48.906;9.140;2022-09-24T04:09:59;982.04;;;20.42;46.71
45071;BME280;30836;48.906;9.140;2022-09-24T04:10:59;982.04;;;20.40;46.67
45071;BME280;30836;48.906;9.140;2022-09-24T04:12:00;982.04;;;20.38;46.75
45071;BME280;30836;48.906;9.140;2022-09-24T04:13:00;982.04;;;20.34;46.82
45071;BME280;30836;48.906;9.140;2022-09-24T04:14:01;982.02;;;20.31;46.87
45071;BME280;30836;48.906;9.140;2022-09-24T04:15:02;982.00;;;20.29;46.96
45071;BME280;30836;48.906;9.140;2022-09-24T04:16:03;981.98;;;20.25;47.06
45071;BME280;30836;48.906;9.140;2022-09-24T04:17:04;981.96;;;20.22;47.14
45071;BME280;30836;48.906;9.140;2022-09-24T04:18:04;981.92;;;20.20;47.18
45071;BME280;30836;48.906;9.140;2022-09-24T04:19:05;981.92;;;20.18;47.20
45071;BME280;30836;48.906;9.140;2022-09-24T04:20:05;981.88;;;20.17;47.21
45071;BME280;30836;48.906;9.140;2022-09-24T04:21:06;981.86;;;20.16;47.29
45071;BME280;30836;48.906;9.140;2022-09-24T04:22:06;981.88;;;20.16;47.22
45071;BME280;30836;48.906;9.140;2022-09-24T04:23:08;981.84;;;20.16;47.20
45071;BME280;30836;48.906;9.140;2022-09-24T04:24:11;981.84;;;20.17;47.22
45071;BME280;30836;48.906;9.140;2022-09-24T04:25:12;981.81;;;20.24;46.88
45071;BME280;30836;48.906;9.140;2022-09-24T04:26:13;981.81;;;20.36;46.59
45071;BME280;30836;48.906;9.140;2022-09-24T04:27:14;981.79;;;20.49;46.31
45071;BME280;30836;48.906;9.140;2022-09-24T04:28:15;981.81;;;20.61;46.07
45071;BME280;30836;48.906;9.140;2022-09-24T04:29:15;981.82;;;20.72;45.81
45071;BME280;30836;48.906;9.140;2022-09-24T04:30:16;981.86;;;20.81;45.66
45071;BME280;30836;48.906;9.140;2022-09-24T04:31:16;981.88;;;20.83;45.85
45071;BME280;30836;48.906;9.140;2022-09-24T04:32:17;981.90;;;20.78;46.06
45071;BME280;30836;48.906;9.140;2022-09-24T04:33:17;981.90;;;20.70;46.27
45071;BME280;30836;48.906;9.140;2022-09-24T04:34:17;981.88;;;20.63;46.39
45071;BME280;30836;48.906;9.140;2022-09-24T04:35:18;981.90;;;20.56;46.52
45071;BME280;30836;48.906;9.140;2022-09-24T04:36:21;981.92;;;20.51;46.57
45071;BME280;30836;48.906;9.140;2022-09-24T04:37:21;981.94;;;20.48;46.60
45071;BME280;30836;48.906;9.140;2022-09-24T04:38:21;981.94;;;20.44;46.71
45071;BME280;30836;48.906;9.140;2022-09-24T04:39:22;981.94;;;20.39;46.80
45071;BME280;30836;48.906;9.140;2022-09-24T04:40:22;981.96;;;20.36;46.80
45071;BME280;30836;48.906;9.140;2022-09-24T04:41:23;981.94;;;20.32;46.86
45071;BME280;30836;48.906;9.140;2022-09-24T04:42:23;981.92;;;20.28;47.02
45071;BME280;30836;48.906;9.140;2022-09-24T04:43:24;981.90;;;20.25;46.98
45071;BME280;30836;48.906;9.140;2022-09-24T04:44:24;981.86;;;20.23;47.08
45071;BME280;30836;48.906;9.140;2022-09-24T04:45:25;981.86;;;20.19;47.15
45071;BME280;30836;48.906;9.140;2022-09-24T04:46:25;981.81;;;20.16;47.25
45071;BME280;30836;48.906;9.140;2022-09-24T04:47:26;981.81;;;20.14;47.29
45071;BME280;30836;48.906;9.140;2022-09-24T04:48:26;981.81;;;20.12;47.33
45071;BME280;30836;48.906;9.140;2022-09-24T04:49:26;981.79;;;20.09;47.32
45071;BME280;30836;48.906;9.140;2022-09-24T04:50:28;981.77;;;20.06;47.44
45071;BME280;30836;48.906;9.140;2022-09-24T04:50:38;981.73;;;19.97;47.48
45071;BME280;30836;48.906;9.140;2022-09-24T04:51:38;981.75;;;19.98;47.57
45071;BME280;30836;48.906;9.140;2022-09-24T04:52:39;981.75;;;19.98;47.68
45071;BME280;30836;48.906;9.140;2022-09-24T04:53:39;981.77;;;19.97;47.74
45071;BME280;30836;48.906;9.140;2022-09-24T04:54:40;981.79;;;19.96;47.75
45071;BME280;30836;48.906;9.140;2022-09-24T04:55:41;981.81;;;19.95;47.73
45071;BME280;30836;48.906;9.140;2022-09-24T04:56:42;981.81;;;19.96;47.72
45071;BME280;30836;48.906;9.140;2022-09-24T04:57:42;981.82;;;19.97;47.68
45071;BME280;30836;48.906;9.140;2022-09-24T04:58:43;981.82;;;19.99;47.63
45071;BME280;30836;48.906;9.140;2022-09-24T04:59:43;981.81;;;20.01;47.59
45071;BME280;30836;48.906;9.140;2022-09-24T05:00:43;981.82;;;20.03;47.60
45071;BME280;30836;48.906;9.140;2022-09-24T05:01:44;981.81;;;20.05;47.51
45071;BME280;30836;48.906;9.140;2022-09-24T05:02:44;981.79;;;20.07;47.51
45071;BME280;30836;48.906;9.140;2022-09-24T05:03:45;981.77;;;20.08;47.44
45071;BME280;30836;48.906;9.140;2022-09-24T05:04:45;981.77;;;20.08;47.44
45071;BME280;30836;48.906;9.140;2022-09-24T05:05:46;981.77;;;20.08;47.38
45071;BME280;30836;48.906;9.140;2022-09-24T05:06:47;981.75;;;20.08;47.44
45071;BME280;30836;48.906;9.140;2022-09-24T05:07:48;981.75;;;20.07;47.49
45071;BME280;30836;48.906;9.140;2022-09-24T05:08:48;981.75;;;20.06;47.48
45071;BME280;30836;48.906;9.140;2022-09-24T05:09:49;981.71;;;20.04;47.59
45071;BME280;30836;48.906;9.140;2022-09-24T05:10:49;981.71;;;20.02;47.62
45071;BME280;30836;48.906;9.140;2022-09-24T05:11:50;981.71;;;20.01;47.63
45071;BME280;30836;48.906;9.140;2022-09-24T05:12:50;981.71;;;20.00;47.56
45071;BME280;30836;48.906;9.140;2022-09-24T05:13:52;981.71;;;19.99;47.63
45071;BME280;30836;48.906;9.140;2022-09-24T05:14:52;981.71;;;19.97;47.64
45071;BME280;30836;48.906;9.140;2022-09-24T05:15:52;981.71;;;19.95;47.70
45071;BME280;30836;48.906;9.140;2022-09-24T05:16:53;981.73;;;19.94;47.68
45071;BME280;30836;48.906;9.140;2022-09-24T05:17:54;981.75;;;19.92;47.78
45071;BME280;30836;48.906;9.140;2022-09-24T05:18:54;981.71;;;19.91;47.86
45071;BME280;30836;48.906;9.140;2022-09-24T05:19:54;981.73;;;19.90;47.89
45071;BME280;30836;48.906;9.140;2022-09-24T05:20:55;981.73;;;19.90;47.89
45071;BME280;30836;48.906;9.140;2022-09-24T05:21:55;981.79;;;19.90;47.83
45071;BME280;30836;48.906;9.140;2022-09-24T05:22:56;981.81;;;19.91;47.83
45071;BME280;30836;48.906;9.140;2022-09-24T05:23:56;981.82;;;19.91;47.85
45071;BME280;30836;48.906;9.140;2022-09-24T05:24:57;981.84;;;19.90;47.86
45071;BME280;30836;48.906;9.140;2022-09-24T05:25:57;981.86;;;19.91;47.81
45071;BME280;30836;48.906;9.140;2022-09-24T05:26:58;981.86;;;19.91;47.81
45071;BME280;30836;48.906;9.140;2022-09-24T05:27:58;981.86;;;19.91;47.81
45071;BME280;30836;48.906;9.140;2022-09-24T05:28:59;981.86;;;19.92;47.85
45071;BME280;30836;48.906;9.140;2022-09-24T05:29:59;981.88;;;19.92;47.82
45071;BME280;30836;48.906;9.140;2022-09-24T05:30:59;981.88;;;19.92;47.80
45071;BME280;30836;48.906;9.140;2022-09-24T05:32:04;981.90;;;19.92;47.78
45071;BME280;30836;48.906;9.140;2022-09-24T05:33:10;981.92;;;19.94;47.64
45071;BME280;30836;48.906;9.140;2022-09-24T05:34:10;981.92;;;19.98;47.59
45071;BME280;30836;48.906;9.140;2022-09-24T05:35:11;981.92;;;20.00;47.50
45071;BME280;30836;48.906;9.140;2022-09-24T05:36:11;981.92;;;20.02;47.41
45071;BME280;30836;48.906;9.140;2022-09-24T05:37:12;981.92;;;20.04;47.36
45071;BME280;30836;48.906;9.140;2022-09-24T05:38:13;981.90;;;20.08;47.20
45071;BME280;30836;48.906;9.140;2022-09-24T05:39:13;981.92;;;20.13;47.10
45071;BME280;30836;48.906;9.140;2022-09-24T05:40:14;981.92;;;20.15;47.10
45071;BME280;30836;48.906;9.140;2022-09-24T05:41:15;981.94;;;20.15;47.15
45071;BME280;30836;48.906;9.140;2022-09-24T05:42:15;981.96;;;20.15;47.19
45071;BME280;30836;48.906;9.140;2022-09-24T05:43:16;981.96;;;20.14;47.22
45071;BME280;30836;48.906;9.140;2022-09-24T05:44:17;981.96;;;20.13;47.23
45071;BME280;30836;48.906;9.140;2022-09-24T05:45:17;981.96;;;20.13;47.20
45071;BME280;30836;48.906;9.140;2022-09-24T05:46:18;981.98;;;20.14;47.16
45071;BME280;30836;48.906;9.140;2022-09-24T05:47:18;982.00;;;20.12;47.20
45071;BME280;30836;48.906;9.140;2022-09-24T05:48:19;982.04;;;20.09;47.29
45071;BME280;30836;48.906;9.140;2022-09-24T05:49:20;982.04;;;20.05;47.38
45071;BME280;30836;48.906;9.140;2022-09-24T05:50:20;982.12;;;19.99;47.35
45071;BME280;30836;48.906;9.140;2022-09-24T05:51:21;982.12;;;19.95;47.52
45071;BME280;30836;48.906;9.140;2022-09-24T05:52:21;982.04;;;19.91;47.69
45071;BME280;30836;48.906;9.140;2022-09-24T05:53:22;982.12;;;19.89;47.74
45071;BME280;30836;48.906;9.140;2022-09-24T05:53:33;982.18;;;19.86;47.74
45071;BME280;30836;48.906;9.140;2022-09-24T05:54:34;982.18;;;19.88;47.71
45071;BME280;30836;48.906;9.140;2022-09-24T05:55:34;982.18;;;19.92;47.65
45071;BME280;30836;48.906;9.140;2022-09-24T05:56:35;982.16;;;19.93;47.66
45071;BME280;30836;48.906;9.140;2022-09-24T05:57:36;982.16;;;19.95;47.56